createdAt,value
2023-05-08T00:01:31.021Z,2.20
2023-05-08T00:03:58.028Z,2.03
2023-05-08T00:06:24.938Z,2.00
2023-05-08T00:08:51.657Z,1.90
2023-05-08T00:11:18.364Z,1.83
2023-05-08T00:13:45.244Z,1.83
2023-05-08T00:16:14.728Z,1.67
2023-05-08T00:18:41.479Z,1.67
2023-05-08T00:21:08.317Z,1.85
2023-05-08T00:23:35.223Z,1.67
2023-05-08T00:26:01.956Z,1.80
2023-05-08T00:28:28.770Z,1.50
2023-05-08T00:30:55.590Z,1.75
2023-05-08T00:33:22.326Z,1.50
2023-05-08T00:35:49.121Z,1.58
2023-05-08T00:38:18.243Z,1.40
2023-05-08T00:40:44.981Z,1.73
2023-05-08T00:43:11.764Z,1.80
2023-05-08T00:45:40.628Z,1.83
2023-05-08T00:48:08.157Z,1.50
2023-05-08T00:50:36.326Z,1.40
2023-05-08T00:53:04.626Z,1.45
2023-05-08T00:55:32.849Z,1.50
2023-05-08T00:57:59.896Z,1.60
2023-05-08T01:00:26.896Z,1.40
2023-05-08T01:02:54.095Z,1.50
2023-05-08T01:05:21.055Z,1.50
2023-05-08T01:07:48.083Z,1.60
2023-05-08T01:10:15.119Z,1.50
2023-05-08T01:12:48.397Z,1.63
2023-05-08T01:15:21.293Z,1.65
2023-05-08T01:17:51.176Z,1.50
2023-05-08T01:20:34.732Z,1.42
2023-05-08T01:23:46.564Z,1.70
2023-05-08T01:26:34.646Z,1.65
2023-05-08T01:29:35.426Z,1.60
2023-05-08T01:32:22.726Z,1.60
2023-05-08T01:34:58.971Z,1.45
2023-05-08T01:37:45.434Z,1.60
2023-05-08T01:40:27.303Z,1.58
2023-05-08T01:43:05.937Z,1.40
2023-05-08T01:45:39.083Z,1.50
2023-05-08T01:48:15.011Z,1.40
2023-05-08T01:50:48.596Z,1.63
2023-05-08T01:53:26.263Z,1.58
2023-05-08T01:55:58.124Z,1.40
2023-05-08T01:58:27.612Z,1.40
2023-05-08T02:00:55.192Z,1.50
2023-05-08T02:03:26.339Z,1.42
2023-05-08T02:08:24.384Z,1.70
2023-05-08T02:10:52.279Z,1.40
2023-05-08T02:13:22.029Z,1.40
2023-05-08T02:15:50.182Z,1.58
2023-05-08T02:18:21.414Z,1.42
2023-05-08T02:20:50.570Z,1.63
2023-05-08T02:23:20.041Z,1.60
2023-05-08T02:25:47.794Z,1.30
2023-05-08T02:28:18.843Z,1.65
2023-05-08T02:30:46.401Z,1.40
2023-05-08T02:33:15.038Z,1.50
2023-05-08T02:35:44.767Z,1.92
2023-05-08T02:38:14.244Z,1.60
2023-05-08T02:40:48.551Z,1.58
2023-05-08T02:43:15.393Z,1.63
2023-05-08T02:46:18.473Z,1.58
2023-05-08T02:48:56.217Z,1.40
2023-05-08T02:51:28.245Z,1.40
2023-05-08T02:54:01.361Z,1.55
2023-05-08T02:56:55.555Z,1.60
2023-05-08T02:59:30.436Z,1.48
2023-05-08T03:02:09.748Z,1.60
2023-05-08T03:04:45.487Z,1.52
2023-05-08T03:07:13.090Z,1.58
2023-05-08T03:09:44.608Z,1.45
2023-05-08T03:12:16.382Z,1.30
2023-05-08T03:14:52.737Z,1.90
2023-05-08T03:17:22.890Z,1.48
2023-05-08T03:19:55.258Z,1.60
2023-05-08T03:22:23.849Z,1.40
2023-05-08T03:24:51.716Z,1.40
2023-05-08T03:27:20.622Z,1.42
2023-05-08T03:29:50.562Z,1.58
2023-05-08T03:32:18.431Z,1.50
2023-05-08T03:34:45.501Z,1.40
2023-05-08T03:37:13.854Z,1.60
2023-05-08T03:39:40.898Z,1.58
2023-05-08T03:42:07.754Z,1.40
2023-05-08T03:44:34.657Z,1.40
2023-05-08T03:47:03.400Z,1.50
2023-05-08T03:49:31.542Z,1.40
2023-05-08T03:51:59.120Z,1.38
2023-05-08T03:54:27.945Z,1.25
2023-05-08T03:56:54.767Z,1.50
2023-05-08T04:00:03.478Z,1.45
2023-05-08T04:03:17.381Z,1.38
2023-05-08T04:05:59.630Z,1.23
2023-05-08T04:08:39.892Z,1.40
2023-05-08T04:11:25.408Z,1.38
2023-05-08T04:14:00.790Z,1.50
2023-05-08T04:16:29.936Z,1.30
2023-05-08T04:19:05.912Z,1.52
2023-05-08T04:21:35.478Z,1.50
2023-05-08T04:24:07.184Z,1.40
2023-05-08T04:26:34.918Z,1.40
2023-05-08T04:29:02.556Z,1.40
2023-05-08T04:31:31.130Z,1.45
2023-05-08T04:33:58.914Z,1.60
2023-05-08T04:36:29.344Z,2.05
2023-05-08T04:38:59.517Z,1.50
2023-05-08T04:41:27.191Z,1.40
2023-05-08T04:43:54.593Z,1.60
2023-05-08T04:46:21.457Z,1.60
2023-05-08T04:48:50.343Z,1.65
2023-05-08T04:51:17.739Z,2.13
2023-05-08T04:53:46.090Z,1.80
2023-05-08T04:56:13.139Z,1.42
2023-05-08T04:58:40.144Z,1.77
2023-05-08T05:01:07.762Z,1.80
2023-05-08T05:03:34.606Z,1.40
2023-05-08T05:06:02.715Z,1.88
2023-05-08T05:08:29.666Z,1.58
2023-05-08T05:10:57.425Z,1.60
2023-05-08T05:13:24.342Z,1.90
2023-05-08T05:15:54.254Z,1.48
2023-05-08T05:18:22.229Z,1.80
2023-05-08T05:20:50.567Z,1.65
2023-05-08T05:23:17.599Z,1.70
2023-05-08T05:25:44.946Z,1.90
2023-05-08T05:28:12.141Z,1.63
2023-05-08T05:30:38.932Z,1.80
2023-05-08T05:33:06.050Z,1.60
2023-05-08T05:35:33.768Z,1.80
2023-05-08T05:38:01.122Z,1.90
2023-05-08T05:40:27.866Z,1.67
2023-05-08T05:42:54.647Z,1.88
2023-05-08T05:45:21.929Z,1.70
2023-05-08T05:47:54.887Z,1.70
2023-05-08T05:50:27.294Z,1.80
2023-05-08T05:52:55.665Z,1.70
2023-05-08T05:55:22.667Z,2.50
2023-05-08T05:57:51.764Z,1.60
2023-05-08T06:00:19.378Z,1.60
2023-05-08T06:02:50.178Z,1.60
2023-05-08T06:05:19.682Z,1.73
2023-05-08T06:07:46.519Z,1.73
2023-05-08T06:10:16.108Z,1.60
2023-05-08T06:12:42.942Z,1.90
2023-05-08T06:15:15.200Z,1.60
2023-05-08T06:17:44.434Z,1.60
2023-05-08T06:20:12.115Z,1.80
2023-05-08T06:22:40.199Z,1.60
2023-05-08T06:25:09.743Z,1.40
2023-05-08T06:27:36.916Z,1.40
2023-05-08T06:30:04.833Z,2.00
2023-05-08T06:32:31.669Z,1.60
2023-05-08T06:35:00.874Z,1.60
2023-05-08T06:37:27.667Z,1.60
2023-05-08T06:40:03.871Z,1.83
2023-05-08T06:42:38.335Z,1.80
2023-05-08T06:45:07.458Z,1.98
2023-05-08T06:47:34.232Z,1.60
2023-05-08T06:50:01.101Z,1.50
2023-05-08T06:52:27.941Z,1.63
2023-05-08T06:54:54.612Z,1.40
2023-05-08T06:57:21.591Z,1.55
2023-05-08T06:59:48.329Z,1.67
2023-05-08T07:02:16.322Z,1.55
2023-05-08T07:04:44.458Z,1.35
2023-05-08T07:07:11.704Z,1.35
2023-05-08T07:09:38.454Z,1.40
2023-05-08T07:12:05.670Z,1.40
2023-05-08T07:14:32.571Z,1.55
2023-05-08T07:17:06.685Z,1.35
2023-05-08T07:19:36.962Z,1.50
2023-05-08T07:24:31.689Z,1.50
2023-05-08T07:26:59.727Z,1.35
2023-05-08T07:29:27.066Z,1.50
2023-05-08T07:31:54.051Z,1.60
2023-05-08T07:34:21.011Z,1.30
2023-05-08T07:36:48.069Z,1.30
2023-05-08T07:39:14.881Z,1.33
2023-05-08T07:41:41.994Z,1.50
2023-05-08T07:44:09.096Z,1.40
2023-05-08T07:46:36.058Z,1.50
2023-05-08T07:49:03.678Z,1.38
2023-05-08T07:51:30.399Z,1.55
2023-05-08T07:53:59.289Z,1.50
2023-05-08T07:56:27.310Z,1.30
2023-05-08T07:58:54.285Z,1.40
2023-05-08T08:01:23.908Z,1.40
2023-05-08T08:03:50.948Z,1.40
2023-05-08T08:06:19.720Z,1.38
2023-05-08T08:08:46.407Z,1.83
2023-05-08T08:11:13.324Z,1.33
2023-05-08T08:13:40.151Z,1.55
2023-05-08T08:16:13.958Z,1.40
2023-05-08T08:18:45.332Z,1.40
2023-05-08T08:21:14.014Z,1.42
2023-05-08T08:23:43.195Z,1.20
2023-05-08T08:26:12.429Z,1.50
2023-05-08T08:28:44.630Z,1.27
2023-05-08T08:31:13.581Z,1.30
2023-05-08T08:33:49.294Z,1.25
2023-05-08T08:36:18.814Z,1.35
2023-05-08T08:38:55.142Z,1.13
2023-05-08T08:41:24.854Z,1.20
2023-05-08T08:43:53.957Z,1.20
2023-05-08T08:46:24.917Z,1.30
2023-05-08T08:48:54.291Z,1.30
2023-05-08T08:51:28.677Z,1.17
2023-05-08T08:54:03.779Z,1.10
2023-05-08T08:56:32.016Z,1.10
2023-05-08T08:59:02.155Z,1.20
2023-05-08T09:01:33.820Z,1.10
2023-05-08T09:04:03.283Z,1.20
2023-05-08T09:06:32.971Z,1.02
2023-05-08T09:09:05.828Z,1.23
2023-05-08T09:11:40.339Z,1.15
2023-05-08T09:14:07.282Z,1.20
2023-05-08T09:16:34.390Z,1.20
2023-05-08T09:19:04.499Z,1.20
2023-05-08T09:21:34.726Z,1.10
2023-05-08T09:29:09.717Z,1.17
2023-05-08T09:31:43.218Z,1.00
2023-05-08T09:34:12.019Z,1.20
2023-05-08T09:36:42.146Z,0.90
2023-05-08T09:39:14.882Z,1.00
2023-05-08T09:42:00.236Z,0.95
2023-05-08T09:44:27.269Z,1.20
2023-05-08T09:47:24.387Z,1.00
2023-05-08T09:50:10.863Z,1.15
2023-05-08T09:52:39.078Z,1.13
2023-05-08T09:55:09.106Z,1.60
2023-05-08T09:57:39.329Z,1.30
2023-05-08T10:00:15.831Z,1.60
2023-05-08T10:03:01.435Z,1.33
2023-05-08T10:05:36.346Z,1.15
2023-05-08T10:08:19.398Z,1.30
2023-05-08T10:10:46.951Z,1.40
2023-05-08T10:13:14.170Z,1.10
2023-05-08T10:15:52.094Z,1.30
2023-05-08T10:18:21.794Z,1.20
2023-05-08T10:20:49.338Z,1.48
2023-05-08T10:23:17.630Z,1.48
2023-05-08T10:25:54.142Z,1.42
2023-05-08T10:28:30.071Z,1.40
2023-05-08T10:31:01.353Z,1.27
2023-05-08T10:33:34.245Z,1.42
2023-05-08T10:36:01.559Z,1.30
2023-05-08T10:38:34.805Z,1.30
2023-05-08T10:41:04.863Z,1.33
2023-05-08T10:43:34.620Z,1.20
2023-05-08T10:46:09.731Z,1.30
2023-05-08T10:48:50.781Z,1.20
2023-05-08T10:51:47.571Z,1.30
2023-05-08T10:54:25.381Z,1.20
2023-05-08T10:56:52.491Z,1.20
2023-05-08T10:59:20.203Z,1.02
2023-05-08T11:01:49.263Z,1.20
2023-05-08T11:04:25.510Z,1.15
2023-05-08T11:06:57.639Z,1.10
2023-05-08T11:09:29.926Z,1.00
2023-05-08T11:12:03.431Z,1.00
2023-05-08T11:14:31.586Z,1.00
2023-05-08T11:16:59.858Z,1.27
2023-05-08T11:19:28.395Z,1.30
2023-05-08T11:24:52.660Z,1.10
2023-05-08T11:27:32.015Z,1.00
2023-05-08T11:30:25.926Z,1.20
2023-05-08T11:33:04.993Z,1.00
2023-05-08T11:35:45.609Z,1.08
2023-05-08T11:38:19.854Z,1.30
2023-05-08T11:40:47.111Z,0.90
2023-05-08T11:43:41.633Z,1.20
2023-05-08T11:46:14.303Z,1.17
2023-05-08T11:48:41.121Z,1.90
2023-05-08T11:51:10.339Z,1.10
2023-05-08T11:53:40.758Z,1.00
2023-05-08T11:56:08.116Z,1.08
2023-05-08T11:58:36.653Z,0.90
2023-05-08T12:01:05.966Z,0.90
2023-05-08T12:03:33.004Z,0.80
2023-05-08T12:06:01.966Z,0.90
2023-05-08T12:08:29.736Z,0.88
2023-05-08T12:10:58.125Z,1.00
2023-05-08T12:13:27.271Z,0.80
2023-05-08T12:15:56.812Z,0.90
2023-05-08T12:18:26.421Z,0.90
2023-05-08T12:20:58.975Z,1.00
2023-05-08T12:23:29.423Z,0.80
2023-05-08T12:25:59.546Z,1.00
2023-05-08T12:28:26.309Z,1.00
2023-05-08T12:30:53.987Z,0.93
2023-05-08T12:33:21.258Z,1.00
2023-05-08T12:35:48.287Z,0.95
2023-05-08T12:38:15.157Z,1.02
2023-05-08T12:40:49.068Z,1.00
2023-05-08T12:43:15.931Z,1.10
2023-05-08T12:45:43.160Z,0.95
2023-05-08T12:48:11.527Z,1.10
2023-05-08T12:50:40.724Z,1.00
2023-05-08T12:53:09.857Z,0.93
2023-05-08T12:55:39.487Z,1.00
2023-05-08T12:58:15.567Z,1.08
2023-05-08T13:00:50.513Z,1.30
2023-05-08T13:03:26.481Z,1.10
2023-05-08T13:05:55.461Z,1.00
2023-05-08T13:08:35.441Z,0.95
2023-05-08T13:11:06.824Z,1.10
2023-05-08T13:13:35.827Z,1.20
2023-05-08T13:16:07.490Z,1.08
2023-05-08T13:18:37.676Z,1.20
2023-05-08T13:21:04.662Z,1.10
2023-05-08T13:23:31.549Z,1.10
2023-05-08T13:26:01.829Z,1.20
2023-05-08T13:28:28.562Z,1.00
2023-05-08T13:30:55.314Z,0.98
2023-05-08T13:33:24.414Z,1.20
2023-05-08T13:35:54.231Z,1.05
2023-05-08T13:38:20.931Z,1.10
2023-05-08T13:40:52.820Z,1.00
2023-05-08T13:43:21.976Z,1.00
2023-05-08T13:45:50.618Z,1.05
2023-05-08T13:48:17.354Z,1.00
2023-05-08T13:50:44.127Z,1.20
2023-05-08T13:53:20.502Z,1.20
2023-05-08T13:55:47.287Z,1.15
2023-05-08T13:58:15.422Z,1.38
2023-05-08T14:00:42.201Z,1.50
2023-05-08T14:03:12.161Z,1.20
2023-05-08T14:05:39.084Z,1.30
2023-05-08T14:08:05.847Z,1.50
2023-05-08T14:10:32.676Z,1.38
2023-05-08T14:13:02.653Z,1.40
2023-05-08T14:15:36.988Z,1.38
2023-05-08T14:18:04.816Z,1.58
2023-05-08T14:20:31.688Z,1.38
2023-05-08T14:23:00.076Z,1.48
2023-05-08T14:25:27.224Z,1.23
2023-05-08T14:27:53.981Z,1.40
2023-05-08T14:30:20.864Z,1.40
2023-05-08T14:32:47.971Z,1.50
2023-05-08T14:35:14.951Z,1.55
2023-05-08T14:37:41.736Z,1.38
2023-05-08T14:40:09.016Z,1.40
2023-05-08T14:42:36.570Z,1.30
2023-05-08T14:45:03.603Z,1.30
2023-05-08T14:47:32.450Z,1.50
2023-05-08T14:49:59.207Z,1.35
2023-05-08T14:52:26.091Z,1.30
2023-05-08T14:54:55.677Z,1.30
2023-05-08T14:57:22.495Z,1.48
2023-05-08T14:59:54.599Z,1.50
2023-05-08T15:02:23.626Z,1.20
2023-05-08T15:04:50.569Z,1.42
2023-05-08T15:07:17.364Z,1.30
2023-05-08T15:09:44.208Z,1.30
2023-05-08T15:12:11.057Z,1.30
2023-05-08T15:14:37.812Z,1.23
2023-05-08T15:17:04.716Z,1.30
2023-05-08T15:19:31.478Z,1.15
2023-05-08T15:21:58.245Z,1.23
2023-05-08T15:24:25.381Z,1.30
2023-05-08T15:26:52.190Z,1.30
2023-05-08T15:29:21.984Z,1.30
2023-05-08T15:31:48.825Z,1.02
2023-05-08T15:34:15.706Z,1.13
2023-05-08T15:36:42.495Z,1.13
2023-05-08T15:39:09.588Z,1.20
2023-05-08T15:41:37.642Z,1.15
2023-05-08T15:44:04.591Z,1.10
2023-05-08T15:46:31.580Z,1.42
2023-05-08T15:48:59.323Z,1.40
2023-05-08T15:51:27.275Z,1.67
2023-05-08T15:53:53.958Z,1.90
2023-05-08T15:56:24.468Z,1.85
2023-05-08T15:58:52.495Z,1.60
2023-05-08T16:01:20.352Z,1.67
2023-05-08T16:03:47.248Z,3.65
2023-05-08T16:06:14.098Z,1.65
2023-05-08T16:08:40.869Z,1.20
2023-05-08T16:11:08.179Z,1.20
2023-05-08T16:13:34.884Z,1.20
2023-05-08T16:16:04.640Z,1.30
2023-05-08T16:18:31.562Z,1.35
2023-05-08T16:20:58.414Z,1.40
2023-05-08T16:23:25.362Z,1.38
2023-05-08T16:25:52.062Z,1.50
2023-05-08T16:28:18.853Z,1.30
2023-05-08T16:30:45.615Z,1.55
2023-05-08T16:33:12.673Z,1.38
2023-05-08T16:35:40.036Z,1.10
2023-05-08T16:38:07.035Z,1.30
2023-05-08T16:40:33.848Z,1.40
2023-05-08T16:43:00.803Z,1.20
2023-05-08T16:45:27.992Z,1.20
2023-05-08T16:47:54.738Z,1.10
2023-05-08T16:50:21.596Z,1.30
2023-05-08T16:52:48.542Z,1.30
2023-05-08T16:55:15.529Z,1.40
2023-05-08T16:57:42.606Z,1.40
2023-05-08T17:00:10.006Z,1.70
2023-05-08T17:02:36.832Z,1.40
2023-05-08T17:05:03.926Z,1.80
2023-05-08T17:07:30.878Z,1.50
2023-05-08T17:09:58.280Z,1.40
2023-05-08T17:12:25.454Z,1.70
2023-05-08T17:14:52.346Z,1.60
2023-05-08T17:17:19.190Z,2.00
2023-05-08T17:19:46.126Z,1.90
2023-05-08T17:22:13.194Z,1.70
2023-05-08T17:24:40.157Z,1.60
2023-05-08T17:27:07.685Z,1.60
2023-05-08T17:29:35.548Z,1.67
2023-05-08T17:32:02.689Z,1.75
2023-05-08T17:34:29.784Z,1.80
2023-05-08T17:36:57.750Z,1.80
2023-05-08T17:39:24.826Z,1.77
2023-05-08T17:41:51.953Z,2.40
2023-05-08T17:44:19.006Z,2.92
2023-05-08T17:46:46.148Z,2.97
2023-05-08T17:49:14.735Z,3.22
2023-05-08T17:51:42.370Z,3.50
2023-05-08T17:54:09.264Z,3.10
2023-05-08T17:56:36.231Z,3.10
2023-05-08T17:59:03.150Z,2.92
2023-05-08T18:01:30.364Z,2.55
2023-05-08T18:03:58.820Z,2.70
2023-05-08T18:06:25.828Z,2.50
2023-05-08T18:08:52.620Z,2.85
2023-05-08T18:11:22.368Z,2.70
2023-05-08T18:13:50.002Z,2.80
2023-05-08T18:16:18.582Z,2.78
2023-05-08T18:18:45.535Z,3.00
2023-05-08T18:21:12.713Z,3.40
2023-05-08T18:23:39.928Z,2.60
2023-05-08T18:26:07.612Z,2.30
2023-05-08T18:28:38.310Z,2.30
2023-05-08T18:31:05.372Z,2.10
2023-05-08T18:33:36.937Z,2.45
2023-05-08T18:36:07.419Z,3.30
2023-05-08T18:38:35.584Z,2.50
2023-05-08T18:41:03.742Z,2.40
2023-05-08T18:43:34.121Z,1.98
2023-05-08T18:46:14.563Z,1.92
2023-05-08T18:48:41.422Z,1.70
2023-05-08T18:51:08.600Z,1.75
2023-05-08T18:53:38.522Z,1.65
2023-05-08T18:56:05.725Z,1.80
2023-05-08T18:58:32.688Z,1.75
2023-05-08T19:01:00.424Z,2.08
2023-05-08T19:03:27.827Z,2.00
2023-05-08T19:05:55.607Z,1.60
2023-05-08T19:08:22.710Z,1.80
2023-05-08T19:10:49.622Z,1.60
2023-05-08T19:13:16.749Z,1.70
2023-05-08T19:15:43.673Z,1.45
2023-05-08T19:18:10.739Z,1.50
2023-05-08T19:20:37.574Z,1.52
2023-05-08T19:23:04.544Z,1.80
2023-05-08T19:25:31.671Z,1.65
2023-05-08T19:27:59.169Z,1.75
2023-05-08T19:30:25.923Z,1.80
2023-05-08T19:32:52.781Z,1.95
2023-05-08T19:35:19.671Z,1.70
2023-05-08T19:37:46.761Z,1.80
2023-05-08T19:40:16.282Z,1.80
2023-05-08T19:42:45.789Z,1.70
2023-05-08T19:45:13.484Z,1.80
2023-05-08T19:47:40.465Z,2.40
2023-05-08T19:50:07.809Z,2.00
2023-05-08T19:52:34.646Z,1.60
2023-05-08T19:55:01.445Z,2.70
2023-05-08T19:57:28.229Z,4.60
2023-05-08T19:59:55.987Z,3.92
2023-05-08T20:02:23.078Z,5.60
2023-05-08T20:05:14.448Z,7.47
2023-05-08T20:07:38.241Z,5.95
2023-05-08T20:10:06.015Z,6.28
2023-05-08T20:12:32.723Z,6.15
2023-05-08T20:14:59.799Z,4.95
2023-05-08T20:17:26.897Z,8.80
2023-05-08T20:19:54.444Z,8.93
2023-05-08T20:22:22.075Z,8.02
2023-05-08T20:24:49.018Z,6.85
2023-05-08T20:27:16.210Z,8.55
2023-05-08T20:29:43.027Z,6.80
2023-05-08T20:32:14.716Z,6.97
2023-05-08T20:34:41.921Z,6.95
2023-05-08T20:37:08.696Z,6.53
2023-05-08T20:39:35.700Z,7.20
2023-05-08T20:42:03.563Z,6.93
2023-05-08T20:44:30.818Z,7.18
2023-05-08T20:46:57.941Z,7.90
2023-05-08T20:49:25.103Z,6.75
2023-05-08T20:51:52.283Z,5.50
2023-05-08T20:54:19.423Z,6.07
2023-05-08T20:56:46.838Z,6.30
2023-05-08T20:59:17.591Z,6.15
2023-05-08T21:01:50.882Z,6.97
2023-05-08T21:06:44.899Z,6.65
2023-05-08T21:09:11.801Z,6.22
2023-05-08T21:11:38.592Z,6.22
2023-05-08T21:14:05.644Z,6.10
2023-05-08T21:16:32.817Z,5.57
2023-05-08T21:18:59.922Z,5.32
2023-05-08T21:21:36.107Z,5.30
2023-05-08T21:24:04.119Z,5.25
2023-05-08T21:26:30.867Z,4.70
2023-05-08T21:28:58.766Z,5.18
2023-05-08T21:31:28.733Z,5.13
2023-05-08T21:33:55.722Z,5.10
2023-05-08T21:36:22.778Z,5.03
2023-05-08T21:38:49.662Z,4.75
2023-05-08T21:41:16.458Z,4.53
2023-05-08T21:43:43.179Z,4.50
2023-05-08T21:46:10.301Z,4.75
2023-05-08T21:48:37.243Z,4.65
2023-05-08T21:51:05.800Z,4.65
2023-05-08T21:53:33.259Z,4.00
2023-05-08T21:56:00.070Z,4.10
2023-05-08T21:58:26.868Z,3.88
2023-05-08T22:00:53.841Z,4.00
2023-05-08T22:03:20.701Z,4.05
2023-05-08T22:05:47.561Z,3.97
2023-05-08T22:08:14.368Z,4.20
2023-05-08T22:10:44.124Z,4.10
2023-05-08T22:13:12.229Z,4.20
2023-05-08T22:15:39.129Z,4.03
2023-05-08T22:18:05.998Z,3.63
2023-05-08T22:20:33.378Z,4.00
2023-05-08T22:23:00.278Z,3.90
2023-05-08T22:25:27.240Z,3.70
2023-05-08T22:27:54.051Z,3.50
2023-05-08T22:30:21.014Z,3.80
2023-05-08T22:32:57.061Z,3.65
2023-05-08T22:35:26.844Z,3.80
2023-05-08T22:37:54.697Z,4.00
2023-05-08T22:40:22.114Z,4.13
2023-05-08T22:42:51.599Z,4.20
2023-05-08T22:45:18.682Z,3.97
2023-05-08T22:47:48.268Z,3.80
2023-05-08T22:50:18.996Z,3.65
2023-05-08T22:52:46.021Z,4.15
2023-05-08T22:55:13.202Z,3.80
2023-05-08T22:57:40.161Z,3.80
2023-05-08T23:00:08.016Z,4.00
2023-05-08T23:02:35.593Z,4.47
2023-05-08T23:05:03.827Z,4.50
2023-05-08T23:07:30.796Z,3.78
2023-05-08T23:09:57.665Z,4.15
2023-05-08T23:12:24.655Z,4.10
2023-05-08T23:14:52.379Z,4.30
2023-05-08T23:17:19.225Z,4.25
2023-05-08T23:19:46.217Z,3.92
2023-05-08T23:22:13.175Z,3.28
2023-05-08T23:24:40.038Z,3.28
2023-05-08T23:27:06.967Z,3.33
2023-05-08T23:29:33.688Z,3.28
2023-05-08T23:32:00.537Z,3.53
2023-05-08T23:34:27.408Z,4.50
2023-05-08T23:36:54.252Z,5.50
2023-05-08T23:39:21.309Z,4.93
2023-05-08T23:41:48.198Z,4.55
2023-05-08T23:44:15.714Z,4.45
2023-05-08T23:46:42.874Z,4.10
2023-05-08T23:49:09.921Z,3.50
2023-05-08T23:51:36.677Z,3.65
2023-05-08T23:54:04.513Z,4.28
2023-05-08T23:56:31.395Z,4.00
2023-05-08T23:58:58.134Z,3.72
